sensor_id;sensor_type;location;lat;lon;timestamp;pressure;altitude;pressure_sealevel;temperature;humidity
50268;BME280;36153;50.960;6.220;2023-10-19T00:01:57;98419.03;;;16.83;63.26
50268;BME280;36153;50.960;6.220;2023-10-19T00:04:58;98425.53;;;16.95;63.33
50268;BME280;36153;50.960;6.220;2023-10-19T00:07:59;98416.97;;;17.09;63.13
50268;BME280;36153;50.960;6.220;2023-10-19T00:11:02;98421.94;;;17.15;62.75
50268;BME280;36153;50.960;6.220;2023-10-19T00:14:05;98416.91;;;17.11;62.80
50268;BME280;36153;50.960;6.220;2023-10-19T00:17:11;98417.44;;;17.17;62.81
50268;BME280;36153;50.960;6.220;2023-10-19T00:20:13;98425.94;;;17.22;62.79
50268;BME280;36153;50.960;6.220;2023-10-19T00:23:32;98425.66;;;17.29;62.68
50268;BME280;36153;50.960;6.220;2023-10-19T00:26:32;98426.59;;;17.28;62.75
50268;BME280;36153;50.960;6.220;2023-10-19T00:29:33;98417.31;;;17.20;62.73
50268;BME280;36153;50.960;6.220;2023-10-19T00:32:40;98412.81;;;17.05;63.29
50268;BME280;36153;50.960;6.220;2023-10-19T00:35:40;98419.13;;;17.01;63.46
50268;BME280;36153;50.960;6.220;2023-10-19T00:39:01;98414.78;;;17.00;63.70
50268;BME280;36153;50.960;6.220;2023-10-19T00:42:13;98415.22;;;16.91;63.42
50268;BME280;36153;50.960;6.220;2023-10-19T00:45:15;98416.06;;;16.72;63.96
50268;BME280;36153;50.960;6.220;2023-10-19T00:48:16;98419.78;;;16.68;64.27
50268;BME280;36153;50.960;6.220;2023-10-19T00:51:20;98416.66;;;16.60;64.56
50268;BME280;36153;50.960;6.220;2023-10-19T00:54:34;98418.69;;;16.72;64.80
50268;BME280;36153;50.960;6.220;2023-10-19T00:57:42;98414.47;;;16.88;64.58
50268;BME280;36153;50.960;6.220;2023-10-19T01:00:48;98422.94;;;16.94;64.92
50268;BME280;36153;50.960;6.220;2023-10-19T01:03:50;98411.78;;;17.08;64.76
50268;BME280;36153;50.960;6.220;2023-10-19T01:06:56;98422.16;;;17.11;64.51
50268;BME280;36153;50.960;6.220;2023-10-19T01:10:11;98415.34;;;17.24;64.49
50268;BME280;36153;50.960;6.220;2023-10-19T01:13:12;98421.31;;;17.45;65.17
50268;BME280;36153;50.960;6.220;2023-10-19T01:16:14;98402.44;;;18.07;66.92
50268;BME280;36153;50.960;6.220;2023-10-19T01:19:20;98402.75;;;18.82;65.17
50268;BME280;36153;50.960;6.220;2023-10-19T01:22:21;98395.34;;;19.21;63.60
50268;BME280;36153;50.960;6.220;2023-10-19T01:25:21;98403.19;;;19.37;62.22
50268;BME280;36153;50.960;6.220;2023-10-19T01:28:36;98403.25;;;19.51;61.41
50268;BME280;36153;50.960;6.220;2023-10-19T01:31:43;98401.16;;;19.56;61.38
50268;BME280;36153;50.960;6.220;2023-10-19T01:35:12;98406.00;;;19.64;60.94
50268;BME280;36153;50.960;6.220;2023-10-19T01:38:13;98399.59;;;19.68;60.79
50268;BME280;36153;50.960;6.220;2023-10-19T01:41:14;98386.97;;;19.73;60.21
50268;BME280;36153;50.960;6.220;2023-10-19T01:44:18;98385.44;;;19.69;60.40
50268;BME280;36153;50.960;6.220;2023-10-19T01:47:20;98384.41;;;19.72;60.10
50268;BME280;36153;50.960;6.220;2023-10-19T01:50:22;98392.31;;;19.57;60.89
50268;BME280;36153;50.960;6.220;2023-10-19T01:53:23;98391.91;;;19.80;60.15
50268;BME280;36153;50.960;6.220;2023-10-19T01:56:25;98389.13;;;19.67;60.74
50268;BME280;36153;50.960;6.220;2023-10-19T01:59:27;98390.38;;;19.75;60.52
50268;BME280;36153;50.960;6.220;2023-10-19T02:02:29;98393.53;;;19.82;60.47
50268;BME280;36153;50.960;6.220;2023-10-19T02:05:32;98395.66;;;19.75;60.61
50268;BME280;36153;50.960;6.220;2023-10-19T02:08:39;98390.69;;;19.85;60.09
50268;BME280;36153;50.960;6.220;2023-10-19T02:11:40;98389.00;;;19.84;60.60
50268;BME280;36153;50.960;6.220;2023-10-19T02:14:45;98390.31;;;19.91;59.98
50268;BME280;36153;50.960;6.220;2023-10-19T02:17:47;98379.00;;;20.04;59.79
50268;BME280;36153;50.960;6.220;2023-10-19T02:20:47;98379.38;;;20.12;59.54
50268;BME280;36153;50.960;6.220;2023-10-19T02:23:49;98380.16;;;20.14;59.07
50268;BME280;36153;50.960;6.220;2023-10-19T02:26:55;98375.50;;;20.18;58.35
50268;BME280;36153;50.960;6.220;2023-10-19T02:29:56;98374.94;;;20.27;58.23
50268;BME280;36153;50.960;6.220;2023-10-19T02:32:56;98364.06;;;20.32;57.79
50268;BME280;36153;50.960;6.220;2023-10-19T02:35:57;98363.91;;;20.20;57.54
50268;BME280;36153;50.960;6.220;2023-10-19T02:38:59;98365.91;;;20.17;57.49
50268;BME280;36153;50.960;6.220;2023-10-19T02:42:00;98372.78;;;20.05;57.81
50268;BME280;36153;50.960;6.220;2023-10-19T02:45:02;98365.41;;;19.95;57.71
50268;BME280;36153;50.960;6.220;2023-10-19T02:48:05;98365.03;;;19.87;57.67
50268;BME280;36153;50.960;6.220;2023-10-19T02:51:10;98359.09;;;19.84;58.17
50268;BME280;36153;50.960;6.220;2023-10-19T02:54:17;98363.47;;;19.85;58.41
50268;BME280;36153;50.960;6.220;2023-10-19T02:57:22;98360.91;;;19.98;57.92
50268;BME280;36153;50.960;6.220;2023-10-19T03:00:23;98364.19;;;20.01;58.17
50268;BME280;36153;50.960;6.220;2023-10-19T03:03:28;98354.28;;;20.05;58.04
50268;BME280;36153;50.960;6.220;2023-10-19T03:06:31;98349.00;;;20.05;57.96
50268;BME280;36153;50.960;6.220;2023-10-19T03:09:33;98346.75;;;19.99;58.64
50268;BME280;36153;50.960;6.220;2023-10-19T03:12:36;98344.09;;;20.13;58.95
50268;BME280;36153;50.960;6.220;2023-10-19T03:15:36;98352.38;;;20.07;58.75
50268;BME280;36153;50.960;6.220;2023-10-19T03:18:39;98353.06;;;20.10;58.53
50268;BME280;36153;50.960;6.220;2023-10-19T03:21:40;98344.88;;;20.01;58.83
50268;BME280;36153;50.960;6.220;2023-10-19T03:24:44;98351.84;;;20.02;58.65
50268;BME280;36153;50.960;6.220;2023-10-19T03:27:44;98343.34;;;19.97;58.55
50268;BME280;36153;50.960;6.220;2023-10-19T03:30:44;98338.91;;;19.97;59.11
50268;BME280;36153;50.960;6.220;2023-10-19T03:33:47;98331.38;;;20.05;58.77
50268;BME280;36153;50.960;6.220;2023-10-19T03:36:50;98332.69;;;19.98;59.16
50268;BME280;36153;50.960;6.220;2023-10-19T03:39:54;98326.28;;;20.02;58.82
50268;BME280;36153;50.960;6.220;2023-10-19T03:42:58;98332.78;;;19.97;58.90
50268;BME280;36153;50.960;6.220;2023-10-19T03:45:59;98334.59;;;19.96;59.53
50268;BME280;36153;50.960;6.220;2023-10-19T03:49:04;98326.28;;;20.02;59.26
50268;BME280;36153;50.960;6.220;2023-10-19T03:52:11;98325.63;;;19.84;59.62
50268;BME280;36153;50.960;6.220;2023-10-19T03:55:11;98321.75;;;19.90;59.33
50268;BME280;36153;50.960;6.220;2023-10-19T03:58:15;98323.34;;;20.07;59.47
50268;BME280;36153;50.960;6.220;2023-10-19T04:01:16;98326.47;;;19.99;59.17
50268;BME280;36153;50.960;6.220;2023-10-19T04:04:16;98323.16;;;19.95;59.16
50268;BME280;36153;50.960;6.220;2023-10-19T04:07:18;98329.69;;;19.90;59.06
50268;BME280;36153;50.960;6.220;2023-10-19T04:10:22;98326.28;;;19.88;59.38
50268;BME280;36153;50.960;6.220;2023-10-19T04:13:35;98322.72;;;19.89;59.86
50268;BME280;36153;50.960;6.220;2023-10-19T04:16:36;98322.81;;;20.02;59.91
50268;BME280;36153;50.960;6.220;2023-10-19T04:19:37;98323.28;;;20.08;59.45
50268;BME280;36153;50.960;6.220;2023-10-19T04:22:39;98323.91;;;20.12;59.50
50268;BME280;36153;50.960;6.220;2023-10-19T04:25:40;98323.53;;;20.18;59.30
50268;BME280;36153;50.960;6.220;2023-10-19T04:28:41;98321.00;;;20.17;59.17
50268;BME280;36153;50.960;6.220;2023-10-19T04:31:44;98332.41;;;20.17;59.32
50268;BME280;36153;50.960;6.220;2023-10-19T04:34:49;98319.94;;;20.19;59.06
50268;BME280;36153;50.960;6.220;2023-10-19T04:37:53;98316.91;;;20.11;59.17
50268;BME280;36153;50.960;6.220;2023-10-19T04:40:54;98322.81;;;20.02;59.73
50268;BME280;36153;50.960;6.220;2023-10-19T04:43:54;98327.03;;;20.04;59.71
50268;BME280;36153;50.960;6.220;2023-10-19T04:46:57;98324.66;;;20.00;59.68
50268;BME280;36153;50.960;6.220;2023-10-19T04:49:58;98331.00;;;19.83;59.95
50268;BME280;36153;50.960;6.220;2023-10-19T04:52:58;98329.56;;;19.77;60.50
50268;BME280;36153;50.960;6.220;2023-10-19T04:55:59;98330.28;;;19.79;60.07
50268;BME280;36153;50.960;6.220;2023-10-19T04:59:00;98332.72;;;19.84;60.26
50268;BME280;36153;50.960;6.220;2023-10-19T05:02:01;98331.28;;;19.92;60.40
50268;BME280;36153;50.960;6.220;2023-10-19T05:05:05;98333.94;;;19.92;60.29
50268;BME280;36153;50.960;6.220;2023-10-19T05:08:06;98332.44;;;20.03;60.05
50268;BME280;36153;50.960;6.220;2023-10-19T05:11:06;98336.00;;;20.02;60.33
50268;BME280;36153;50.960;6.220;2023-10-19T05:14:07;98330.44;;;20.06;60.30
50268;BME280;36153;50.960;6.220;2023-10-19T05:17:08;98329.78;;;20.03;60.41
50268;BME280;36153;50.960;6.220;2023-10-19T05:20:11;98325.63;;;19.99;60.12
50268;BME280;36153;50.960;6.220;2023-10-19T05:23:12;98323.16;;;19.95;60.32
50268;BME280;36153;50.960;6.220;2023-10-19T05:26:15;98320.81;;;19.91;60.32
50268;BME280;36153;50.960;6.220;2023-10-19T05:29:15;98322.72;;;19.89;60.36
50268;BME280;36153;50.960;6.220;2023-10-19T05:32:16;98329.78;;;19.88;60.41
50268;BME280;36153;50.960;6.220;2023-10-19T05:35:16;98323.75;;;19.86;60.71
50268;BME280;36153;50.960;6.220;2023-10-19T05:38:23;98319.97;;;19.90;60.48
50268;BME280;36153;50.960;6.220;2023-10-19T05:41:23;98316.97;;;19.82;60.46
50268;BME280;36153;50.960;6.220;2023-10-19T05:44:24;98325.59;;;19.70;60.88
50268;BME280;36153;50.960;6.220;2023-10-19T05:47:25;98330.78;;;19.71;60.80
50268;BME280;36153;50.960;6.220;2023-10-19T05:50:26;98335.22;;;19.71;60.84
50268;BME280;36153;50.960;6.220;2023-10-19T05:53:28;98339.16;;;19.64;61.03
50268;BME280;36153;50.960;6.220;2023-10-19T05:56:33;98346.78;;;19.54;61.23
50268;BME280;36153;50.960;6.220;2023-10-19T05:59:36;98337.81;;;19.42;61.07
50268;BME280;36153;50.960;6.220;2023-10-19T06:02:36;98345.88;;;19.24;61.33
50268;BME280;36153;50.960;6.220;2023-10-19T06:05:37;98351.63;;;19.17;61.59
50268;BME280;36153;50.960;6.220;2023-10-19T06:08:37;98361.84;;;19.07;61.70
50268;BME280;36153;50.960;6.220;2023-10-19T06:11:38;98357.09;;;18.98;61.89
50268;BME280;36153;50.960;6.220;2023-10-19T06:14:42;98355.97;;;19.02;62.19
50268;BME280;36153;50.960;6.220;2023-10-19T06:17:43;98355.69;;;19.06;62.13
50268;BME280;36153;50.960;6.220;2023-10-19T06:20:46;98354.03;;;19.05;62.08
50268;BME280;36153;50.960;6.220;2023-10-19T06:23:48;98360.97;;;19.06;61.99
50268;BME280;36153;50.960;6.220;2023-10-19T06:26:48;98367.13;;;19.07;62.01
50268;BME280;36153;50.960;6.220;2023-10-19T06:29:49;98366.63;;;19.00;61.98
50268;BME280;36153;50.960;6.220;2023-10-19T06:32:52;98372.81;;;18.99;62.04
50268;BME280;36153;50.960;6.220;2023-10-19T06:35:52;98369.16;;;19.02;61.90
50268;BME280;36153;50.960;6.220;2023-10-19T06:38:53;98370.09;;;19.01;62.01
50268;BME280;36153;50.960;6.220;2023-10-19T06:41:54;98374.44;;;19.02;62.04
50268;BME280;36153;50.960;6.220;2023-10-19T06:44:56;98372.38;;;19.07;61.51
50268;BME280;36153;50.960;6.220;2023-10-19T06:47:57;98379.94;;;19.13;61.95
50268;BME280;36153;50.960;6.220;2023-10-19T06:51:00;98372.84;;;19.30;61.86
50268;BME280;36153;50.960;6.220;2023-10-19T06:54:00;98373.63;;;19.46;61.71
50268;BME280;36153;50.960;6.220;2023-10-19T06:57:01;98372.91;;;19.58;61.53
50268;BME280;36153;50.960;6.220;2023-10-19T07:00:03;98381.22;;;19.67;61.31
50268;BME280;36153;50.960;6.220;2023-10-19T07:03:14;98380.94;;;19.71;61.00
50268;BME280;36153;50.960;6.220;2023-10-19T07:06:14;98378.97;;;19.75;61.21
50268;BME280;36153;50.960;6.220;2023-10-19T07:09:15;98384.38;;;19.88;60.95
50268;BME280;36153;50.960;6.220;2023-10-19T07:12:16;98384.19;;;19.91;60.73
50268;BME280;36153;50.960;6.220;2023-10-19T07:15:18;98382.22;;;20.09;60.69
50268;BME280;36153;50.960;6.220;2023-10-19T07:18:22;98385.22;;;20.17;60.35
50268;BME280;36153;50.960;6.220;2023-10-19T07:21:23;98383.59;;;20.29;60.06
50268;BME280;36153;50.960;6.220;2023-10-19T07:24:24;98375.78;;;20.42;59.96
50268;BME280;36153;50.960;6.220;2023-10-19T07:27:24;98370.47;;;20.56;59.28
50268;BME280;36153;50.960;6.220;2023-10-19T07:30:28;98364.78;;;20.77;59.17
50268;BME280;36153;50.960;6.220;2023-10-19T07:33:28;98359.97;;;20.96;58.52
50268;BME280;36153;50.960;6.220;2023-10-19T07:36:29;98363.84;;;20.78;58.34
50268;BME280;36153;50.960;6.220;2023-10-19T07:39:29;98373.78;;;20.87;58.37
50268;BME280;36153;50.960;6.220;2023-10-19T07:42:30;98365.84;;;21.14;58.00
50268;BME280;36153;50.960;6.220;2023-10-19T07:45:33;98367.97;;;21.22;57.73
50268;BME280;36153;50.960;6.220;2023-10-19T07:48:34;98361.66;;;21.38;57.36
50268;BME280;36153;50.960;6.220;2023-10-19T07:51:35;98368.44;;;21.42;56.86
50268;BME280;36153;50.960;6.220;2023-10-19T07:54:35;98364.63;;;21.46;57.01
50268;BME280;36153;50.960;6.220;2023-10-19T07:57:36;98357.44;;;21.48;56.37
50268;BME280;36153;50.960;6.220;2023-10-19T08:00:36;98352.16;;;21.48;56.29
50268;BME280;36153;50.960;6.220;2023-10-19T08:03:37;98350.00;;;21.40;56.07
50268;BME280;36153;50.960;6.220;2023-10-19T08:06:37;98343.88;;;21.40;56.08
50268;BME280;36153;50.960;6.220;2023-10-19T08:09:38;98345.03;;;21.36;56.44
50268;BME280;36153;50.960;6.220;2023-10-19T08:12:39;98340.25;;;21.28;56.35
50268;BME280;36153;50.960;6.220;2023-10-19T08:15:41;98340.25;;;21.28;56.73
50268;BME280;36153;50.960;6.220;2023-10-19T08:18:42;98348.84;;;21.31;56.75
50268;BME280;36153;50.960;6.220;2023-10-19T08:21:43;98347.91;;;21.33;56.91
50268;BME280;36153;50.960;6.220;2023-10-19T08:24:43;98348.75;;;21.33;56.74
50268;BME280;36153;50.960;6.220;2023-10-19T08:27:46;98341.78;;;21.45;56.96
50268;BME280;36153;50.960;6.220;2023-10-19T08:30:51;98336.16;;;21.49;56.50
50268;BME280;36153;50.960;6.220;2023-10-19T08:34:00;98342.47;;;21.74;56.10
50268;BME280;36153;50.960;6.220;2023-10-19T08:37:03;98345.41;;;21.95;55.48
50268;BME280;36153;50.960;6.220;2023-10-19T08:40:07;98337.88;;;21.89;55.34
50268;BME280;36153;50.960;6.220;2023-10-19T08:43:07;98324.44;;;21.92;55.30
50268;BME280;36153;50.960;6.220;2023-10-19T08:46:13;98318.81;;;21.97;55.16
50268;BME280;36153;50.960;6.220;2023-10-19T08:49:15;98315.50;;;22.06;55.28
50268;BME280;36153;50.960;6.220;2023-10-19T08:52:17;98318.03;;;22.21;55.05
50268;BME280;36153;50.960;6.220;2023-10-19T08:55:20;98309.44;;;22.17;54.99
50268;BME280;36153;50.960;6.220;2023-10-19T08:58:20;98312.97;;;22.05;55.37
50268;BME280;36153;50.960;6.220;2023-10-19T09:01:22;98309.53;;;22.28;55.14
50268;BME280;36153;50.960;6.220;2023-10-19T09:04:24;98307.28;;;22.48;54.69
50268;BME280;36153;50.960;6.220;2023-10-19T09:07:26;98304.97;;;22.67;54.77
50268;BME280;36153;50.960;6.220;2023-10-19T09:10:30;98306.44;;;22.72;54.52
50268;BME280;36153;50.960;6.220;2023-10-19T09:14:02;98296.31;;;22.77;54.51
50268;BME280;36153;50.960;6.220;2023-10-19T09:17:06;98300.84;;;22.99;54.61
50268;BME280;36153;50.960;6.220;2023-10-19T09:20:08;98308.31;;;23.18;54.38
50268;BME280;36153;50.960;6.220;2023-10-19T09:23:27;98303.06;;;23.41;53.79
50268;BME280;36153;50.960;6.220;2023-10-19T09:26:30;98304.75;;;23.42;53.11
50268;BME280;36153;50.960;6.220;2023-10-19T09:29:30;98298.34;;;23.33;53.60
50268;BME280;36153;50.960;6.220;2023-10-19T09:32:35;98300.88;;;23.34;53.66
50268;BME280;36153;50.960;6.220;2023-10-19T09:35:36;98299.44;;;23.42;53.20
50268;BME280;36153;50.960;6.220;2023-10-19T09:41:48;98293.91;;;23.56;52.25
50268;BME280;36153;50.960;6.220;2023-10-19T09:44:55;98293.19;;;23.54;52.69
50268;BME280;36153;50.960;6.220;2023-10-19T09:48:01;98295.34;;;23.49;53.19
50268;BME280;36153;50.960;6.220;2023-10-19T09:51:04;98294.91;;;23.66;51.69
50268;BME280;36153;50.960;6.220;2023-10-19T09:54:32;98300.84;;;23.93;51.81
50268;BME280;36153;50.960;6.220;2023-10-19T09:57:48;98292.69;;;24.28;50.91
50268;BME280;36153;50.960;6.220;2023-10-19T10:00:51;98297.47;;;24.68;49.82
50268;BME280;36153;50.960;6.220;2023-10-19T10:03:53;98287.88;;;25.10;49.20
50268;BME280;36153;50.960;6.220;2023-10-19T10:09:54;98276.16;;;25.64;47.66
50268;BME280;36153;50.960;6.220;2023-10-19T10:12:55;98267.94;;;25.46;47.39
50268;BME280;36153;50.960;6.220;2023-10-19T10:15:56;98265.91;;;25.60;47.29
50268;BME280;36153;50.960;6.220;2023-10-19T10:19:04;98257.81;;;25.40;47.57
50268;BME280;36153;50.960;6.220;2023-10-19T10:22:08;98263.91;;;25.31;47.47
50268;BME280;36153;50.960;6.220;2023-10-19T10:25:27;98275.31;;;25.00;47.47
50268;BME280;36153;50.960;6.220;2023-10-19T10:28:28;98281.50;;;24.68;48.51
50268;BME280;36153;50.960;6.220;2023-10-19T10:31:34;98278.91;;;24.46;48.74
50268;BME280;36153;50.960;6.220;2023-10-19T10:37:37;98262.00;;;24.24;49.56
50268;BME280;36153;50.960;6.220;2023-10-19T10:40:44;98259.94;;;24.39;49.74
50268;BME280;36153;50.960;6.220;2023-10-19T10:43:54;98257.16;;;24.84;48.67
50268;BME280;36153;50.960;6.220;2023-10-19T10:46:56;98258.19;;;25.14;48.53
50268;BME280;36153;50.960;6.220;2023-10-19T10:49:58;98255.53;;;25.35;48.66
50268;BME280;36153;50.960;6.220;2023-10-19T10:52:58;98248.09;;;25.60;48.29
50268;BME280;36153;50.960;6.220;2023-10-19T10:56:00;98232.75;;;25.73;47.92
50268;BME280;36153;50.960;6.220;2023-10-19T10:59:12;98231.06;;;26.23;47.18
50268;BME280;36153;50.960;6.220;2023-10-19T11:02:19;98221.97;;;26.35;46.69
50268;BME280;36153;50.960;6.220;2023-10-19T11:05:21;98222.06;;;26.04;47.27
50268;BME280;36153;50.960;6.220;2023-10-19T11:08:25;98223.75;;;25.75;47.94
50268;BME280;36153;50.960;6.220;2023-10-19T11:11:26;98215.69;;;25.55;48.25
50268;BME280;36153;50.960;6.220;2023-10-19T11:14:26;98219.41;;;25.43;48.65
50268;BME280;36153;50.960;6.220;2023-10-19T11:17:30;98231.63;;;25.24;48.76
50268;BME280;36153;50.960;6.220;2023-10-19T11:20:31;98232.66;;;25.12;49.41
50268;BME280;36153;50.960;6.220;2023-10-19T11:23:50;98233.91;;;25.08;49.33
50268;BME280;36153;50.960;6.220;2023-10-19T11:26:53;98222.50;;;24.96;49.66
50268;BME280;36153;50.960;6.220;2023-10-19T11:32:56;98208.84;;;24.89;49.83
50268;BME280;36153;50.960;6.220;2023-10-19T11:36:01;98208.19;;;24.76;49.90
50268;BME280;36153;50.960;6.220;2023-10-19T11:39:02;98205.78;;;24.73;50.21
50268;BME280;36153;50.960;6.220;2023-10-19T11:42:04;98194.38;;;24.61;49.95
50268;BME280;36153;50.960;6.220;2023-10-19T11:45:05;98191.59;;;24.62;50.06
50268;BME280;36153;50.960;6.220;2023-10-19T11:48:06;98192.66;;;24.60;50.40
50268;BME280;36153;50.960;6.220;2023-10-19T11:51:08;98196.16;;;24.60;50.39
50268;BME280;36153;50.960;6.220;2023-10-19T11:54:11;98189.00;;;24.72;49.69
50268;BME280;36153;50.960;6.220;2023-10-19T11:57:12;98196.38;;;24.68;50.06
50268;BME280;36153;50.960;6.220;2023-10-19T12:00:13;98197.88;;;24.61;50.01
50268;BME280;36153;50.960;6.220;2023-10-19T12:03:25;98198.22;;;24.68;49.78
50268;BME280;36153;50.960;6.220;2023-10-19T12:06:25;98199.88;;;24.69;49.86
50268;BME280;36153;50.960;6.220;2023-10-19T12:09:26;98185.88;;;24.67;50.22
50268;BME280;36153;50.960;6.220;2023-10-19T12:12:26;98173.88;;;24.73;49.93
50268;BME280;36153;50.960;6.220;2023-10-19T12:15:26;98178.41;;;24.82;50.26
50268;BME280;36153;50.960;6.220;2023-10-19T12:18:27;98173.88;;;24.73;50.38
50268;BME280;36153;50.960;6.220;2023-10-19T12:21:28;98177.31;;;24.52;50.39
50268;BME280;36153;50.960;6.220;2023-10-19T12:24:31;98172.19;;;24.39;50.94
50268;BME280;36153;50.960;6.220;2023-10-19T12:27:31;98176.81;;;24.26;51.25
50268;BME280;36153;50.960;6.220;2023-10-19T12:30:32;98189.81;;;24.08;51.64
50268;BME280;36153;50.960;6.220;2023-10-19T12:33:32;98182.34;;;24.01;52.16
50268;BME280;36153;50.960;6.220;2023-10-19T12:36:34;98187.28;;;24.06;52.09
50268;BME280;36153;50.960;6.220;2023-10-19T12:39:35;98182.25;;;23.92;52.33
50268;BME280;36153;50.960;6.220;2023-10-19T12:42:35;98181.16;;;23.83;52.52
50268;BME280;36153;50.960;6.220;2023-10-19T12:45:36;98184.03;;;23.80;53.03
50268;BME280;36153;50.960;6.220;2023-10-19T12:48:40;98182.13;;;23.71;53.39
50268;BME280;36153;50.960;6.220;2023-10-19T12:51:40;98181.16;;;23.83;53.14
50268;BME280;36153;50.960;6.220;2023-10-19T12:54:42;98184.66;;;23.95;52.79
50268;BME280;36153;50.960;6.220;2023-10-19T12:57:45;98189.44;;;24.12;53.60
50268;BME280;36153;50.960;6.220;2023-10-19T13:00:46;98185.00;;;24.01;53.38
50268;BME280;36153;50.960;6.220;2023-10-19T13:03:48;98176.81;;;23.71;54.68
50268;BME280;36153;50.960;6.220;2023-10-19T13:06:51;98178.03;;;23.55;55.11
50268;BME280;36153;50.960;6.220;2023-10-19T13:09:52;98172.00;;;23.42;55.27
50268;BME280;36153;50.960;6.220;2023-10-19T13:12:52;98176.56;;;23.17;56.48
50268;BME280;36153;50.960;6.220;2023-10-19T13:15:54;98169.91;;;23.11;57.14
50268;BME280;36153;50.960;6.220;2023-10-19T13:18:54;98171.09;;;22.96;57.66
50268;BME280;36153;50.960;6.220;2023-10-19T13:21:54;98158.19;;;22.80;58.07
50268;BME280;36153;50.960;6.220;2023-10-19T13:24:58;98158.25;;;22.67;58.32
50268;BME280;36153;50.960;6.220;2023-10-19T13:28:00;98168.25;;;22.63;58.98
50268;BME280;36153;50.960;6.220;2023-10-19T13:31:00;98165.34;;;22.55;58.83
50268;BME280;36153;50.960;6.220;2023-10-19T13:34:00;98161.47;;;22.48;59.25
50268;BME280;36153;50.960;6.220;2023-10-19T13:37:03;98160.69;;;22.70;58.93
50268;BME280;36153;50.960;6.220;2023-10-19T13:40:04;98148.78;;;22.76;59.29
50268;BME280;36153;50.960;6.220;2023-10-19T13:43:07;98150.41;;;22.65;59.56
50268;BME280;36153;50.960;6.220;2023-10-19T13:46:08;98142.38;;;22.78;59.52
50268;BME280;36153;50.960;6.220;2023-10-19T13:49:08;98137.28;;;22.75;59.68
50268;BME280;36153;50.960;6.220;2023-10-19T13:52:09;98138.75;;;22.79;59.48
50268;BME280;36153;50.960;6.220;2023-10-19T13:55:10;98135.78;;;22.95;59.41
50268;BME280;36153;50.960;6.220;2023-10-19T13:58:12;98126.81;;;22.96;59.36
50268;BME280;36153;50.960;6.220;2023-10-19T14:01:13;98126.00;;;22.96;59.29
50268;BME280;36153;50.960;6.220;2023-10-19T14:04:13;98118.53;;;23.01;59.29
50268;BME280;36153;50.960;6.220;2023-10-19T14:07:14;98112.47;;;22.99;59.10
50268;BME280;36153;50.960;6.220;2023-10-19T14:10:15;98105.78;;;23.17;59.23
50268;BME280;36153;50.960;6.220;2023-10-19T14:13:16;98098.41;;;23.32;59.00
50268;BME280;36153;50.960;6.220;2023-10-19T14:16:16;98089.47;;;23.33;58.66
50268;BME280;36153;50.960;6.220;2023-10-19T14:19:19;98070.91;;;23.22;58.74
50268;BME280;36153;50.960;6.220;2023-10-19T14:22:20;98065.84;;;23.08;58.53
50268;BME280;36153;50.960;6.220;2023-10-19T14:25:20;98061.97;;;22.78;58.93
50268;BME280;36153;50.960;6.220;2023-10-19T14:28:22;98068.13;;;22.78;59.25
50268;BME280;36153;50.960;6.220;2023-10-19T14:31:22;98051.59;;;22.86;59.40
50268;BME280;36153;50.960;6.220;2023-10-19T14:34:22;98043.50;;;22.99;59.61
50268;BME280;36153;50.960;6.220;2023-10-19T14:37:23;98036.41;;;23.11;59.05
50268;BME280;36153;50.960;6.220;2023-10-19T14:40:25;98040.78;;;23.12;58.75
50268;BME280;36153;50.960;6.220;2023-10-19T14:43:26;98033.16;;;22.96;58.94
50268;BME280;36153;50.960;6.220;2023-10-19T14:46:28;98014.69;;;23.17;59.10
50268;BME280;36153;50.960;6.220;2023-10-19T14:49:30;98004.44;;;23.24;58.36
50268;BME280;36153;50.960;6.220;2023-10-19T14:52:30;98009.03;;;22.88;58.34
50268;BME280;36153;50.960;6.220;2023-10-19T14:55:34;98014.34;;;22.76;58.61
50268;BME280;36153;50.960;6.220;2023-10-19T14:58:34;98007.97;;;22.67;59.76
50268;BME280;36153;50.960;6.220;2023-10-19T15:01:34;98014.22;;;22.89;58.70
50268;BME280;36153;50.960;6.220;2023-10-19T15:04:36;98015.41;;;22.96;57.87
50268;BME280;36153;50.960;6.220;2023-10-19T15:07:42;98007.94;;;23.13;58.09
50268;BME280;36153;50.960;6.220;2023-10-19T15:10:46;98015.88;;;23.24;58.13
50268;BME280;36153;50.960;6.220;2023-10-19T15:13:47;98014.75;;;23.38;57.53
50268;BME280;36153;50.960;6.220;2023-10-19T15:16:48;98006.22;;;23.34;57.87
50268;BME280;36153;50.960;6.220;2023-10-19T15:19:52;97990.78;;;23.28;57.68
50268;BME280;36153;50.960;6.220;2023-10-19T15:22:52;97982.38;;;23.23;57.81
50268;BME280;36153;50.960;6.220;2023-10-19T15:25:54;97972.97;;;23.19;57.82
50268;BME280;36153;50.960;6.220;2023-10-19T15:28:54;97972.97;;;23.08;57.57
50268;BME280;36153;50.960;6.220;2023-10-19T15:31:55;97969.25;;;22.76;58.52
50268;BME280;36153;50.960;6.220;2023-10-19T15:34:56;97966.25;;;22.58;59.22
50268;BME280;36153;50.960;6.220;2023-10-19T15:37:56;97977.09;;;22.66;59.60
50268;BME280;36153;50.960;6.220;2023-10-19T15:40:57;97979.03;;;22.64;58.90
50268;BME280;36153;50.960;6.220;2023-10-19T15:43:57;97983.00;;;22.36;59.70
50268;BME280;36153;50.960;6.220;2023-10-19T15:46:57;97964.25;;;22.15;60.20
50268;BME280;36153;50.960;6.220;2023-10-19T15:49:58;97955.53;;;21.90;61.01
50268;BME280;36153;50.960;6.220;2023-10-19T15:52:58;97949.94;;;21.71;61.29
50268;BME280;36153;50.960;6.220;2023-10-19T15:55:59;97951.84;;;21.57;61.40
50268;BME280;36153;50.960;6.220;2023-10-19T15:59:00;97946.25;;;21.49;61.72
50268;BME280;36153;50.960;6.220;2023-10-19T16:02:01;97959.41;;;21.38;62.18
50268;BME280;36153;50.960;6.220;2023-10-19T16:05:01;97961.41;;;21.23;62.59
50268;BME280;36153;50.960;6.220;2023-10-19T16:08:05;97958.06;;;21.08;62.88
50268;BME280;36153;50.960;6.220;2023-10-19T16:11:06;97961.69;;;20.94;63.46
50268;BME280;36153;50.960;6.220;2023-10-19T16:14:07;97980.31;;;20.92;63.59
50268;BME280;36153;50.960;6.220;2023-10-19T16:17:07;97978.09;;;20.86;63.59
50268;BME280;36153;50.960;6.220;2023-10-19T16:20:09;97980.88;;;20.72;63.80